sensor_id;sensor_type;location;lat;lon;timestamp;pressure;altitude;pressure_sealevel;temperature;humidity
30614;BME280;17381;51.690;5.270;2023-02-26T00:02:39;101850.09;;;1.32;69.91
30614;BME280;17381;51.690;5.270;2023-02-26T00:05:34;101842.41;;;1.35;69.75
30614;BME280;17381;51.690;5.270;2023-02-26T00:08:24;101816.25;;;1.26;69.79
30614;BME280;17381;51.690;5.270;2023-02-26T00:11:18;101859.53;;;1.62;69.38
30614;BME280;17381;51.690;5.270;2023-02-26T00:13:50;101853.63;;;1.67;69.36
30614;BME280;17381;51.690;5.270;2023-02-26T00:16:34;101863.41;;;1.78;69.02
30614;BME280;17381;51.690;5.270;2023-02-26T00:19:14;101861.88;;;1.84;68.73
30614;BME280;17381;51.690;5.270;2023-02-26T00:21:59;101868.06;;;1.89;68.38
30614;BME280;17381;51.690;5.270;2023-02-26T00:27:27;101870.81;;;1.95;67.72
30614;BME280;17381;51.690;5.270;2023-02-26T00:30:07;101876.97;;;1.99;67.42
30614;BME280;17381;51.690;5.270;2023-02-26T00:33:13;101884.03;;;2.06;67.12
30614;BME280;17381;51.690;5.270;2023-02-26T00:36:25;101890.19;;;2.10;67.02
30614;BME280;17381;51.690;5.270;2023-02-26T00:42:05;101899.78;;;2.14;66.67
30614;BME280;17381;51.690;5.270;2023-02-26T00:44:46;101818.34;;;1.71;67.04
30614;BME280;17381;51.690;5.270;2023-02-26T00:54:34;101903.13;;;2.08;66.37
30614;BME280;17381;51.690;5.270;2023-02-26T00:57:25;101910.53;;;1.94;66.33
30614;BME280;17381;51.690;5.270;2023-02-26T01:00:07;101912.13;;;1.89;66.54
30614;BME280;17381;51.690;5.270;2023-02-26T01:02:54;101913.59;;;1.80;66.91
30614;BME280;17381;51.690;5.270;2023-02-26T01:05:27;101905.66;;;1.73;66.68
30614;BME280;17381;51.690;5.270;2023-02-26T01:08:12;101892.41;;;1.63;66.58
30614;BME280;17381;51.690;5.270;2023-02-26T01:11:21;101911.34;;;1.62;66.75
30614;BME280;17381;51.690;5.270;2023-02-26T01:14:07;101918.16;;;1.58;66.87
30614;BME280;17381;51.690;5.270;2023-02-26T01:20:30;101927.38;;;1.48;66.82
30614;BME280;17381;51.690;5.270;2023-02-26T01:23:47;101928.03;;;1.41;67.66
30614;BME280;17381;51.690;5.270;2023-02-26T01:26:51;101930.47;;;1.37;67.16
30614;BME280;17381;51.690;5.270;2023-02-26T01:29:55;101931.28;;;1.34;67.30
30614;BME280;17381;51.690;5.270;2023-02-26T01:32:59;101937.22;;;1.30;67.29
30614;BME280;17381;51.690;5.270;2023-02-26T01:35:53;101930.16;;;1.26;67.64
30614;BME280;17381;51.690;5.270;2023-02-26T01:39:59;101946.50;;;1.23;67.31
30614;BME280;17381;51.690;5.270;2023-02-26T01:42:42;101931.50;;;1.13;67.79
30614;BME280;17381;51.690;5.270;2023-02-26T01:49:02;101935.56;;;1.03;67.98
30614;BME280;17381;51.690;5.270;2023-02-26T01:51:53;101957.16;;;1.05;68.25
30614;BME280;17381;51.690;5.270;2023-02-26T01:54:55;101956.09;;;0.99;68.96
30614;BME280;17381;51.690;5.270;2023-02-26T01:57:50;101954.31;;;0.96;68.63
30614;BME280;17381;51.690;5.270;2023-02-26T02:00:55;101948.25;;;0.96;68.26
30614;BME280;17381;51.690;5.270;2023-02-26T02:03:48;101906.69;;;0.64;68.34
30614;BME280;17381;51.690;5.270;2023-02-26T02:06:45;101947.78;;;0.82;68.36
30614;BME280;17381;51.690;5.270;2023-02-26T02:09:47;101980.09;;;0.93;68.55
30614;BME280;17381;51.690;5.270;2023-02-26T02:32:33;101989.63;;;0.69;68.26
30614;BME280;17381;51.690;5.270;2023-02-26T02:36:03;102000.91;;;0.71;68.38
30614;BME280;17381;51.690;5.270;2023-02-26T02:39:16;102007.63;;;0.65;68.19
30614;BME280;17381;51.690;5.270;2023-02-26T02:42:29;102003.25;;;0.63;68.24
30614;BME280;17381;51.690;5.270;2023-02-26T02:45:29;101976.59;;;0.40;68.22
30614;BME280;17381;51.690;5.270;2023-02-26T02:51:53;102012.47;;;0.56;68.36
30614;BME280;17381;51.690;5.270;2023-02-26T02:54:43;102017.66;;;0.56;68.07
30614;BME280;17381;51.690;5.270;2023-02-26T03:00:55;102025.88;;;0.45;67.91
30614;BME280;17381;51.690;5.270;2023-02-26T03:04:31;102032.81;;;0.46;67.66
30614;BME280;17381;51.690;5.270;2023-02-26T03:07:20;102029.41;;;0.47;67.90
30614;BME280;17381;51.690;5.270;2023-02-26T03:10:36;102031.06;;;0.45;67.54
30614;BME280;17381;51.690;5.270;2023-02-26T03:13:39;102031.59;;;0.36;67.96
30614;BME280;17381;51.690;5.270;2023-02-26T03:20:22;102041.16;;;0.38;67.87
30614;BME280;17381;51.690;5.270;2023-02-26T03:23:31;102044.69;;;0.40;67.63
30614;BME280;17381;51.690;5.270;2023-02-26T03:27:16;102047.25;;;0.39;67.42
30614;BME280;17381;51.690;5.270;2023-02-26T03:33:18;102066.16;;;0.38;67.38
30614;BME280;17381;51.690;5.270;2023-02-26T03:39:46;102074.47;;;0.29;67.37
30614;BME280;17381;51.690;5.270;2023-02-26T03:42:48;102079.56;;;0.28;67.46
30614;BME280;17381;51.690;5.270;2023-02-26T03:45:43;102083.81;;;0.26;67.60
30614;BME280;17381;51.690;5.270;2023-02-26T03:48:53;102038.88;;;-0.02;67.53
30614;BME280;17381;51.690;5.270;2023-02-26T03:51:56;102088.00;;;0.22;67.28
30614;BME280;17381;51.690;5.270;2023-02-26T03:55:22;102093.94;;;0.19;67.00
30614;BME280;17381;51.690;5.270;2023-02-26T03:58:31;102082.44;;;0.11;67.19
30614;BME280;17381;51.690;5.270;2023-02-26T04:02:04;102086.72;;;0.11;67.13
30614;BME280;17381;51.690;5.270;2023-02-26T04:05:24;102094.41;;;0.09;67.33
30614;BME280;17381;51.690;5.270;2023-02-26T04:08:35;102094.31;;;0.06;67.12
30614;BME280;17381;51.690;5.270;2023-02-26T04:11:27;102111.44;;;0.04;67.34
30614;BME280;17381;51.690;5.270;2023-02-26T04:14:29;102097.59;;;0.02;67.24
30614;BME280;17381;51.690;5.270;2023-02-26T04:17:07;102100.94;;;-0.01;67.43
30614;BME280;17381;51.690;5.270;2023-02-26T04:19:37;102114.75;;;0.00;67.61
30614;BME280;17381;51.690;5.270;2023-02-26T04:22:20;102119.78;;;-0.03;67.17
30614;BME280;17381;51.690;5.270;2023-02-26T04:25:10;102107.63;;;-0.06;67.51
30614;BME280;17381;51.690;5.270;2023-02-26T04:28:27;102125.78;;;-0.04;67.29
30614;BME280;17381;51.690;5.270;2023-02-26T04:31:22;102135.19;;;-0.06;67.31
30614;BME280;17381;51.690;5.270;2023-02-26T04:34:18;102138.63;;;-0.06;67.35
30614;BME280;17381;51.690;5.270;2023-02-26T04:37:00;102134.88;;;-0.14;67.48
30614;BME280;17381;51.690;5.270;2023-02-26T04:39:52;102138.34;;;-0.13;67.48
30614;BME280;17381;51.690;5.270;2023-02-26T04:42:40;102141.75;;;-0.14;67.01
30614;BME280;17381;51.690;5.270;2023-02-26T04:45:38;102147.59;;;-0.18;67.46
30614;BME280;17381;51.690;5.270;2023-02-26T04:48:10;102128.34;;;-0.27;67.05
30614;BME280;17381;51.690;5.270;2023-02-26T04:51:08;102146.53;;;-0.24;66.89
30614;BME280;17381;51.690;5.270;2023-02-26T04:54:07;102150.84;;;-0.24;66.79
30614;BME280;17381;51.690;5.270;2023-02-26T04:57:00;102149.09;;;-0.25;66.90
30614;BME280;17381;51.690;5.270;2023-02-26T04:59:50;102156.66;;;-0.30;67.03
30614;BME280;17381;51.690;5.270;2023-02-26T05:03:06;102163.44;;;-0.32;66.77
30614;BME280;17381;51.690;5.270;2023-02-26T05:06:14;102096.91;;;-0.81;67.03
30614;BME280;17381;51.690;5.270;2023-02-26T05:09:10;102163.22;;;-0.38;66.77
30614;BME280;17381;51.690;5.270;2023-02-26T05:11:52;102169.19;;;-0.39;66.90
30614;BME280;17381;51.690;5.270;2023-02-26T05:14:40;102170.84;;;-0.41;66.64
30614;BME280;17381;51.690;5.270;2023-02-26T05:17:34;102174.22;;;-0.42;66.29
30614;BME280;17381;51.690;5.270;2023-02-26T05:20:42;102178.44;;;-0.44;66.51
30614;BME280;17381;51.690;5.270;2023-02-26T05:23:44;102181.03;;;-0.44;66.52
30614;BME280;17381;51.690;5.270;2023-02-26T05:26:22;102182.72;;;-0.45;66.44
30614;BME280;17381;51.690;5.270;2023-02-26T05:29:22;102187.00;;;-0.45;66.58
30614;BME280;17381;51.690;5.270;2023-02-26T05:32:38;102183.28;;;-0.52;66.37
30614;BME280;17381;51.690;5.270;2023-02-26T05:35:25;102189.34;;;-0.51;66.11
30614;BME280;17381;51.690;5.270;2023-02-26T05:38:20;102185.75;;;-0.55;66.20
30614;BME280;17381;51.690;5.270;2023-02-26T05:41:18;102192.69;;;-0.54;66.08
30614;BME280;17381;51.690;5.270;2023-02-26T05:44:30;102195.13;;;-0.57;66.40
30614;BME280;17381;51.690;5.270;2023-02-26T05:47:21;102200.25;;;-0.58;66.09
30614;BME280;17381;51.690;5.270;2023-02-26T05:50:29;102208.75;;;-0.61;66.23
30614;BME280;17381;51.690;5.270;2023-02-26T05:53:32;102201.63;;;-0.67;65.88
30614;BME280;17381;51.690;5.270;2023-02-26T05:56:22;102203.50;;;-0.62;66.26
30614;BME280;17381;51.690;5.270;2023-02-26T05:59:11;102205.00;;;-0.68;66.21
30614;BME280;17381;51.690;5.270;2023-02-26T06:01:50;102207.66;;;-0.66;66.26
30614;BME280;17381;51.690;5.270;2023-02-26T06:05:06;102210.25;;;-0.66;66.08
30614;BME280;17381;51.690;5.270;2023-02-26T06:08:06;102157.75;;;-1.07;66.35
30614;BME280;17381;51.690;5.270;2023-02-26T06:11:24;102229.69;;;-0.74;65.92
30614;BME280;17381;51.690;5.270;2023-02-26T06:14:21;102228.75;;;-0.76;66.18
30614;BME280;17381;51.690;5.270;2023-02-26T06:17:16;102246.59;;;-0.81;66.42
30614;BME280;17381;51.690;5.270;2023-02-26T06:19:47;102252.09;;;-0.73;66.57
30614;BME280;17381;51.690;5.270;2023-02-26T06:22:38;102231.19;;;-0.79;66.47
30614;BME280;17381;51.690;5.270;2023-02-26T06:25:49;102250.13;;;-0.79;66.68
30614;BME280;17381;51.690;5.270;2023-02-26T06:28:48;102259.59;;;-0.79;66.58
30614;BME280;17381;51.690;5.270;2023-02-26T06:31:56;102263.88;;;-0.80;66.19
30614;BME280;17381;51.690;5.270;2023-02-26T06:38:02;102266.28;;;-0.83;66.64
30614;BME280;17381;51.690;5.270;2023-02-26T06:41:04;102272.19;;;-0.85;66.61
30614;BME280;17381;51.690;5.270;2023-02-26T06:43:48;102272.06;;;-0.89;66.69
30614;BME280;17381;51.690;5.270;2023-02-26T06:46:16;102272.94;;;-0.88;67.20
30614;BME280;17381;51.690;5.270;2023-02-26T06:49:02;102272.03;;;-0.90;66.92
30614;BME280;17381;51.690;5.270;2023-02-26T06:51:53;102217.97;;;-1.26;67.21
30614;BME280;17381;51.690;5.270;2023-02-26T06:54:31;102288.59;;;-0.85;67.08
30614;BME280;17381;51.690;5.270;2023-02-26T06:57:41;102298.00;;;-0.85;66.91
30614;BME280;17381;51.690;5.270;2023-02-26T07:00:36;102313.44;;;-0.87;66.89
30614;BME280;17381;51.690;5.270;2023-02-26T07:03:23;102318.66;;;-0.85;67.07
30614;BME280;17381;51.690;5.270;2023-02-26T07:06:20;102318.59;;;-0.87;67.35
30614;BME280;17381;51.690;5.270;2023-02-26T07:09:06;102326.47;;;-0.84;67.21
30614;BME280;17381;51.690;5.270;2023-02-26T07:11:33;102331.78;;;-0.81;67.31
30614;BME280;17381;51.690;5.270;2023-02-26T07:14:13;102332.84;;;-0.76;67.17
30614;BME280;17381;51.690;5.270;2023-02-26T07:17:26;102337.28;;;-0.73;67.20
30614;BME280;17381;51.690;5.270;2023-02-26T07:20:15;102233.03;;;-1.35;67.43
30614;BME280;17381;51.690;5.270;2023-02-26T07:23:23;102359.22;;;-0.63;67.24
30614;BME280;17381;51.690;5.270;2023-02-26T07:26:09;102361.94;;;-0.60;67.01
30614;BME280;17381;51.690;5.270;2023-02-26T07:29:08;102374.19;;;-0.56;67.39
30614;BME280;17381;51.690;5.270;2023-02-26T07:31:58;102372.69;;;-0.51;67.12
30614;BME280;17381;51.690;5.270;2023-02-26T07:45:42;102382.78;;;-0.36;67.44
30614;BME280;17381;51.690;5.270;2023-02-26T07:55:52;102399.69;;;-0.24;67.23
30614;BME280;17381;51.690;5.270;2023-02-26T07:59:08;102404.28;;;-0.18;66.54
30614;BME280;17381;51.690;5.270;2023-02-26T08:05:49;102409.94;;;-0.06;66.48
30614;BME280;17381;51.690;5.270;2023-02-26T08:09:27;102416.16;;;-0.02;65.46
30614;BME280;17381;51.690;5.270;2023-02-26T08:16:30;102412.13;;;0.05;65.23
30614;BME280;17381;51.690;5.270;2023-02-26T08:19:43;102432.31;;;0.13;65.54
30614;BME280;17381;51.690;5.270;2023-02-26T08:23:00;102432.56;;;0.19;65.25
30614;BME280;17381;51.690;5.270;2023-02-26T08:26:14;102439.78;;;0.27;65.01
30614;BME280;17381;51.690;5.270;2023-02-26T08:33:10;102448.84;;;0.38;65.32
30614;BME280;17381;51.690;5.270;2023-02-26T08:36:15;102440.91;;;0.33;65.61
30614;BME280;17381;51.690;5.270;2023-02-26T08:43:06;102362.31;;;-0.12;65.19
30614;BME280;17381;51.690;5.270;2023-02-26T08:46:44;102447.97;;;0.58;65.26
30614;BME280;17381;51.690;5.270;2023-02-26T08:50:00;102462.22;;;0.70;64.47
30614;BME280;17381;51.690;5.270;2023-02-26T08:52:56;102481.56;;;0.78;64.92
30614;BME280;17381;51.690;5.270;2023-02-26T09:00:02;102484.81;;;0.95;64.47
30614;BME280;17381;51.690;5.270;2023-02-26T09:03:32;102484.56;;;1.55;64.53
30614;BME280;17381;51.690;5.270;2023-02-26T09:13:35;102483.63;;;4.87;54.72
30614;BME280;17381;51.690;5.270;2023-02-26T09:16:57;102492.13;;;5.54;54.77
30614;BME280;17381;51.690;5.270;2023-02-26T09:20:02;102493.75;;;6.32;53.57
30614;BME280;17381;51.690;5.270;2023-02-26T09:29:57;102449.78;;;7.82;50.46
30614;BME280;17381;51.690;5.270;2023-02-26T09:33:24;102496.78;;;8.47;45.83
30614;BME280;17381;51.690;5.270;2023-02-26T09:44:28;102503.47;;;9.15;42.74
30614;BME280;17381;51.690;5.270;2023-02-26T09:53:11;102520.34;;;9.57;42.78
30614;BME280;17381;51.690;5.270;2023-02-26T10:19:48;102537.41;;;10.84;39.02
30614;BME280;17381;51.690;5.270;2023-02-26T10:22:44;102541.78;;;11.02;38.34
30614;BME280;17381;51.690;5.270;2023-02-26T11:04:28;102550.50;;;13.22;30.33
30614;BME280;17381;51.690;5.270;2023-02-26T11:07:37;102546.91;;;13.33;32.17
30614;BME280;17381;51.690;5.270;2023-02-26T11:10:44;102515.94;;;13.47;32.12
30614;BME280;17381;51.690;5.270;2023-02-26T11:13:32;102546.38;;;13.80;30.98
30614;BME280;17381;51.690;5.270;2023-02-26T11:16:21;102523.22;;;14.01;31.66
30614;BME280;17381;51.690;5.270;2023-02-26T11:19:07;102564.19;;;14.37;31.08
30614;BME280;17381;51.690;5.270;2023-02-26T11:21:49;102517.25;;;14.51;30.24
30614;BME280;17381;51.690;5.270;2023-02-26T11:24:42;102564.53;;;14.76;28.98
30614;BME280;17381;51.690;5.270;2023-02-26T11:27:24;102510.00;;;14.01;30.34
30614;BME280;17381;51.690;5.270;2023-02-26T11:30:26;102548.25;;;13.70;31.09
30614;BME280;17381;51.690;5.270;2023-02-26T11:36:59;102546.56;;;14.34;29.66
30614;BME280;17381;51.690;5.270;2023-02-26T11:43:44;102539.16;;;14.63;31.23
30614;BME280;17381;51.690;5.270;2023-02-26T11:47:04;102537.72;;;14.97;30.03
30614;BME280;17381;51.690;5.270;2023-02-26T11:49:39;102537.00;;;15.37;29.96
30614;BME280;17381;51.690;5.270;2023-02-26T11:52:44;102539.25;;;15.59;28.93
30614;BME280;17381;51.690;5.270;2023-02-26T11:55:28;102522.31;;;15.66;28.18
30614;BME280;17381;51.690;5.270;2023-02-26T11:58:42;102521.25;;;15.78;27.82
30614;BME280;17381;51.690;5.270;2023-02-26T12:01:15;102525.53;;;15.83;29.35
30614;BME280;17381;51.690;5.270;2023-02-26T12:15:16;102521.78;;;16.34;28.10
30614;BME280;17381;51.690;5.270;2023-02-26T12:21:49;102517.06;;;16.47;28.19
30614;BME280;17381;51.690;5.270;2023-02-26T12:24:38;102521.06;;;16.65;29.89
30614;BME280;17381;51.690;5.270;2023-02-26T12:31:18;102529.59;;;16.81;26.12
30614;BME280;17381;51.690;5.270;2023-02-26T12:57:05;102504.09;;;17.72;27.03
30614;BME280;17381;51.690;5.270;2023-02-26T13:03:12;102500.56;;;18.02;26.03
30614;BME280;17381;51.690;5.270;2023-02-26T13:09:39;102480.59;;;17.56;24.67
30614;BME280;17381;51.690;5.270;2023-02-26T13:12:29;102511.91;;;17.79;26.12
30614;BME280;17381;51.690;5.270;2023-02-26T13:20:24;102504.34;;;17.94;26.07
30614;BME280;17381;51.690;5.270;2023-02-26T13:23:15;102504.03;;;17.73;26.33
30614;BME280;17381;51.690;5.270;2023-02-26T13:29:00;102509.22;;;17.48;26.07
30614;BME280;17381;51.690;5.270;2023-02-26T13:32:00;102503.00;;;17.15;26.35
30614;BME280;17381;51.690;5.270;2023-02-26T13:35:02;102495.84;;;17.50;28.06
30614;BME280;17381;51.690;5.270;2023-02-26T13:37:54;102481.13;;;17.69;26.56
30614;BME280;17381;51.690;5.270;2023-02-26T13:48:07;102509.75;;;17.92;26.06
30614;BME280;17381;51.690;5.270;2023-02-26T13:55:48;102511.44;;;17.95;26.25
30614;BME280;17381;51.690;5.270;2023-02-26T14:05:31;102503.78;;;17.51;26.22
30614;BME280;17381;51.690;5.270;2023-02-26T14:14:42;102497.66;;;17.48;25.84
30614;BME280;17381;51.690;5.270;2023-02-26T14:31:27;102488.09;;;17.73;26.68
30614;BME280;17381;51.690;5.270;2023-02-26T14:34:30;102509.03;;;17.54;25.89
30614;BME280;17381;51.690;5.270;2023-02-26T14:40:54;102494.84;;;16.51;26.01
30614;BME280;17381;51.690;5.270;2023-02-26T14:47:05;102510.00;;;16.07;26.68
30614;BME280;17381;51.690;5.270;2023-02-26T14:49:41;102501.91;;;15.73;26.84
30614;BME280;17381;51.690;5.270;2023-02-26T14:59:20;102500.25;;;14.06;29.44
30614;BME280;17381;51.690;5.270;2023-02-26T15:11:14;102466.03;;;12.10;30.98
30614;BME280;17381;51.690;5.270;2023-02-26T15:22:31;102532.16;;;10.78;33.37
30614;BME280;17381;51.690;5.270;2023-02-26T15:28:34;102516.09;;;9.82;33.68
30614;BME280;17381;51.690;5.270;2023-02-26T15:31:02;102480.97;;;9.56;35.13
30614;BME280;17381;51.690;5.270;2023-02-26T15:33:37;102519.66;;;9.95;34.73
30614;BME280;17381;51.690;5.270;2023-02-26T15:36:17;102514.56;;;10.28;35.16
30614;BME280;17381;51.690;5.270;2023-02-26T15:39:01;102523.34;;;10.53;35.15
30614;BME280;17381;51.690;5.270;2023-02-26T15:41:37;102528.63;;;10.94;34.24
30614;BME280;17381;51.690;5.270;2023-02-26T15:47:56;102525.06;;;11.58;33.28
30614;BME280;17381;51.690;5.270;2023-02-26T15:51:00;102540.72;;;12.09;35.14
30614;BME280;17381;51.690;5.270;2023-02-26T15:53:56;102533.59;;;12.23;32.97
30614;BME280;17381;51.690;5.270;2023-02-26T16:00:34;102539.09;;;11.65;31.97
30614;BME280;17381;51.690;5.270;2023-02-26T16:06:01;102533.88;;;11.46;33.67
30614;BME280;17381;51.690;5.270;2023-02-26T16:08:31;102496.19;;;11.17;34.07
30614;BME280;17381;51.690;5.270;2023-02-26T16:11:03;102555.81;;;11.33;33.87
30614;BME280;17381;51.690;5.270;2023-02-26T16:13:54;102550.59;;;11.02;33.74
30614;BME280;17381;51.690;5.270;2023-02-26T16:16:41;102546.19;;;10.77;34.92
30614;BME280;17381;51.690;5.270;2023-02-26T16:19:12;102555.78;;;10.48;34.83
30614;BME280;17381;51.690;5.270;2023-02-26T16:22:09;102560.88;;;10.10;35.69
30614;BME280;17381;51.690;5.270;2023-02-26T16:25:14;102559.78;;;9.65;36.00
30614;BME280;17381;51.690;5.270;2023-02-26T16:30:48;102551.47;;;9.02;37.58
30614;BME280;17381;51.690;5.270;2023-02-26T16:33:30;102566.16;;;8.83;37.44
30614;BME280;17381;51.690;5.270;2023-02-26T16:46:32;102579.81;;;7.84;39.47
30614;BME280;17381;51.690;5.270;2023-02-26T16:56:46;102600.16;;;7.43;40.53
30614;BME280;17381;51.690;5.270;2023-02-26T17:03:26;102613.66;;;7.16;41.36
30614;BME280;17381;51.690;5.270;2023-02-26T17:10:49;102617.69;;;6.97;42.64
30614;BME280;17381;51.690;5.270;2023-02-26T17:13:30;102620.28;;;6.95;42.45
30614;BME280;17381;51.690;5.270;2023-02-26T17:16:11;102622.84;;;6.94;43.00
30614;BME280;17381;51.690;5.270;2023-02-26T17:18:59;102572.53;;;6.57;43.06
30614;BME280;17381;51.690;5.270;2023-02-26T17:22:05;102634.84;;;6.83;43.57
30614;BME280;17381;51.690;5.270;2023-02-26T17:24:56;102630.34;;;6.74;43.69
30614;BME280;17381;51.690;5.270;2023-02-26T17:28:01;102650.47;;;6.80;44.55
30614;BME280;17381;51.690;5.270;2023-02-26T17:34:48;102647.47;;;6.60;44.65
30614;BME280;17381;51.690;5.270;2023-02-26T17:37:22;102653.56;;;6.60;45.01
30614;BME280;17381;51.690;5.270;2023-02-26T17:40:46;102644.59;;;6.47;45.28
30614;BME280;17381;51.690;5.270;2023-02-26T17:43:33;102653.03;;;6.32;45.53
30614;BME280;17381;51.690;5.270;2023-02-26T17:46:04;102666.00;;;6.29;45.52
30614;BME280;17381;51.690;5.270;2023-02-26T17:49:02;102665.59;;;6.11;45.91
30614;BME280;17381;51.690;5.270;2023-02-26T17:51:35;102660.88;;;5.95;46.02
30614;BME280;17381;51.690;5.270;2023-02-26T17:54:13;102672.09;;;5.92;46.00
30614;BME280;17381;51.690;5.270;2023-02-26T17:56:46;102672.63;;;5.77;46.71
30614;BME280;17381;51.690;5.270;2023-02-26T18:07:27;102692.03;;;5.54;47.35
30614;BME280;17381;51.690;5.270;2023-02-26T18:10:21;102695.31;;;5.45;47.55
30614;BME280;17381;51.690;5.270;2023-02-26T18:59:47;102732.16;;;4.06;53.68
30614;BME280;17381;51.690;5.270;2023-02-26T19:02:36;102725.09;;;4.02;53.57
30614;BME280;17381;51.690;5.270;2023-02-26T19:05:12;102675.44;;;3.67;54.57
30614;BME280;17381;51.690;5.270;2023-02-26T19:07:45;102736.41;;;4.03;53.88
30614;BME280;17381;51.690;5.270;2023-02-26T19:10:46;102732.75;;;3.98;54.97
30614;BME280;17381;51.690;5.270;2023-02-26T19:13:54;102734.34;;;3.92;54.85
30614;BME280;17381;51.690;5.270;2023-02-26T19:23:35;102721.97;;;3.60;55.66
30614;BME280;17381;51.690;5.270;2023-02-26T19:29:36;102742.09;;;3.65;55.67
30614;BME280;17381;51.690;5.270;2023-02-26T19:32:53;102750.69;;;3.63;55.70
30614;BME280;17381;51.690;5.270;2023-02-26T19:35:36;102756.66;;;3.60;56.61
30614;BME280;17381;51.690;5.270;2023-02-26T19:38:13;102762.69;;;3.59;56.09
30614;BME280;17381;51.690;5.270;2023-02-26T19:41:03;102700.00;;;3.24;55.60
30614;BME280;17381;51.690;5.270;2023-02-26T19:44:11;102737.91;;;3.43;55.36
30614;BME280;17381;51.690;5.270;2023-02-26T19:47:05;102759.16;;;3.57;55.88
30614;BME280;17381;51.690;5.270;2023-02-26T19:50:00;102766.72;;;3.51;56.07
30614;BME280;17381;51.690;5.270;2023-02-26T19:52:47;102770.91;;;3.46;56.98
30614;BME280;17381;51.690;5.270;2023-02-26T19:55:36;102759.25;;;3.35;56.45
30614;BME280;17381;51.690;5.270;2023-02-26T19:58:33;102772.50;;;3.42;55.92
30614;BME280;17381;51.690;5.270;2023-02-26T20:01:25;102769.88;;;3.41;56.41
30614;BME280;17381;51.690;5.270;2023-02-26T20:04:17;102776.63;;;3.36;56.34
30614;BME280;17381;51.690;5.270;2023-02-26T20:07:04;102773.06;;;3.34;56.88
30614;BME280;17381;51.690;5.270;2023-02-26T20:10:04;102766.88;;;3.30;56.81
30614;BME280;17381;51.690;5.270;2023-02-26T20:13:02;102770.13;;;3.24;56.80
30614;BME280;17381;51.690;5.270;2023-02-26T20:15:53;102782.25;;;3.24;56.64
30614;BME280;17381;51.690;5.270;2023-02-26T20:18:19;102784.56;;;3.16;56.96
30614;BME280;17381;51.690;5.270;2023-02-26T20:21:08;102782.69;;;3.12;57.64
30614;BME280;17381;51.690;5.270;2023-02-26T20:23:40;102774.84;;;3.11;57.34
30614;BME280;17381;51.690;5.270;2023-02-26T20:26:35;102794.50;;;3.04;57.45
30614;BME280;17381;51.690;5.270;2023-02-26T20:29:40;102789.31;;;3.04;57.28
30614;BME280;17381;51.690;5.270;2023-02-26T20:33:13;102793.53;;;3.00;57.63
30614;BME280;17381;51.690;5.270;2023-02-26T20:35:52;102735.16;;;2.67;57.72
30614;BME280;17381;51.690;5.270;2023-02-26T20:38:56;102802.19;;;3.01;57.31
30614;BME280;17381;51.690;5.270;2023-02-26T20:42:07;102794.19;;;2.95;58.19
30614;BME280;17381;51.690;5.270;2023-02-26T20:44:58;102797.59;;;2.94;57.57
30614;BME280;17381;51.690;5.270;2023-02-26T20:51:35;102747.34;;;2.47;57.98
30614;BME280;17381;51.690;5.270;2023-02-26T20:54:35;102809.19;;;2.79;57.80
30614;BME280;17381;51.690;5.270;2023-02-26T20:57:19;102795.03;;;2.71;58.36
30614;BME280;17381;51.690;5.270;2023-02-26T21:03:56;102803.91;;;2.55;58.87
30614;BME280;17381;51.690;5.270;2023-02-26T21:06:54;102810.25;;;2.62;58.56
30614;BME280;17381;51.690;5.270;2023-02-26T21:09:57;102820.75;;;2.65;58.60
30614;BME280;17381;51.690;5.270;2023-02-26T21:12:50;102823.22;;;2.62;58.64
30614;BME280;17381;51.690;5.270;2023-02-26T21:15:41;102826.69;;;2.62;58.18
30614;BME280;17381;51.690;5.270;2023-02-26T21:18:53;102835.25;;;2.60;58.81
30614;BME280;17381;51.690;5.270;2023-02-26T21:21:28;102835.00;;;2.54;58.79
30614;BME280;17381;51.690;5.270;2023-02-26T21:24:38;102758.81;;;2.08;58.91
30614;BME280;17381;51.690;5.270;2023-02-26T21:27:30;102841.66;;;2.47;58.99
30614;BME280;17381;51.690;5.270;2023-02-26T21:30:21;102838.75;;;2.39;59.62
30614;BME280;17381;51.690;5.270;2023-02-26T21:33:08;102852.56;;;2.38;59.16
30614;BME280;17381;51.690;5.270;2023-02-26T21:35:57;102853.13;;;2.31;59.60
30614;BME280;17381;51.690;5.270;2023-02-26T21:39:07;102831.13;;;2.22;59.73
30614;BME280;17381;51.690;5.270;2023-02-26T21:41:58;102852.06;;;2.26;59.92
30614;BME280;17381;51.690;5.270;2023-02-26T21:45:00;102789.06;;;1.87;60.14
30614;BME280;17381;51.690;5.270;2023-02-26T21:47:51;102851.81;;;2.20;60.24
30614;BME280;17381;51.690;5.270;2023-02-26T21:50:58;102850.94;;;2.20;59.84
30614;BME280;17381;51.690;5.270;2023-02-26T21:53:37;102858.66;;;2.18;60.48
30614;BME280;17381;51.690;5.270;2023-02-26T21:56:50;102850.75;;;2.15;60.05
30614;BME280;17381;51.690;5.270;2023-02-26T21:59:47;102853.22;;;2.12;60.36
30614;BME280;17381;51.690;5.270;2023-02-26T22:02:48;102849.38;;;2.04;60.19
30614;BME280;17381;51.690;5.270;2023-02-26T22:05:34;102855.41;;;2.03;60.40
30614;BME280;17381;51.690;5.270;2023-02-26T22:08:48;102847.75;;;2.06;60.55
30614;BME280;17381;51.690;5.270;2023-02-26T22:11:36;102846.56;;;1.98;60.73
30614;BME280;17381;51.690;5.270;2023-02-26T22:14:23;102847.22;;;1.93;60.46
30614;BME280;17381;51.690;5.270;2023-02-26T22:17:12;102855.16;;;1.96;60.91
30614;BME280;17381;51.690;5.270;2023-02-26T22:20:05;102856.69;;;1.91;61.06
30614;BME280;17381;51.690;5.270;2023-02-26T22:22:55;102861.03;;;1.92;60.74
30614;BME280;17381;51.690;5.270;2023-02-26T22:25:52;102777.59;;;1.40;60.74
30614;BME280;17381;51.690;5.270;2023-02-26T22:29:01;102861.66;;;1.87;60.91
30614;BME280;17381;51.690;5.270;2023-02-26T22:31:55;102869.44;;;1.87;60.98
30614;BME280;17381;51.690;5.270;2023-02-26T22:34:45;102864.88;;;1.81;61.01
30614;BME280;17381;51.690;5.270;2023-02-26T22:37:32;102858.88;;;1.82;60.64
30614;BME280;17381;51.690;5.270;2023-02-26T22:40:35;102856.94;;;1.78;60.69
30614;BME280;17381;51.690;5.270;2023-02-26T22:43:20;102861.22;;;1.76;60.76